Time;durP1;ratioP1;P1;durP2;ratioP2;P2;SDS_P1;SDS_P2;PMS_P1;PMS_P2;Temp;Humidity;BMP_temperature;BMP_pressure;BME280_temperature;BME280_humidity;BME280_pressure;Samples;Min_cycle;Max_cycle;Signal;HPM_P1;HPM_P2
2024/03/28 00:01:38;;;;;;;32.35;30.67;;;;;;;;;;5112862;27;20448;-62
2024/03/28 00:04:03;;;;;;;33.40;31.63;;;;;;;;;;5094326;27;20450;-62
2024/03/28 00:06:29;;;;;;;32.35;30.67;;;;;;;;;;5116759;27;20528;-62
2024/03/28 00:08:54;;;;;;;32.88;31.17;;;;;;;;;;5113989;27;20144;-61
2024/03/28 00:11:19;;;;;;;29.58;28.02;;;;;;;;;;5114249;27;20023;-61
2024/03/28 00:13:45;;;;;;;33.65;31.88;;;;;;;;;;5080984;27;20027;-61
2024/03/28 00:16:10;;;;;;;33.63;31.88;;;;;;;;;;5113387;27;20036;-61
2024/03/28 00:18:36;;;;;;;37.67;35.70;;;;;;;;;;5112105;27;20540;-62
2024/03/28 00:21:02;;;;;;;34.17;32.22;;;;;;;;;;5107669;27;20051;-61
2024/03/28 00:23:28;;;;;;;40.80;38.67;;;;;;;;;;5090793;28;20034;-62
2024/03/28 00:25:55;;;;;;;37.28;35.33;;;;;;;;;;5110240;27;20114;-62
2024/03/28 00:28:21;;;;;;;41.75;39.60;;;;;;;;;;5113686;27;20495;-62
2024/03/28 00:30:47;;;;;;;42.63;40.42;;;;;;;;;;5113749;27;20035;-61
2024/03/28 00:33:13;;;;;;;41.97;39.83;;;;;;;;;;5112473;27;20031;-63
2024/03/28 00:35:46;;;;;;;39.20;37.15;;;;;;;;;;5114407;27;20057;-62
2024/03/28 00:38:12;;;;;;;39.45;37.40;;;;;;;;;;5110540;27;20040;-61
2024/03/28 00:40:45;;;;;;;40.97;38.88;;;;;;;;;;5114718;27;20031;-62
2024/03/28 00:43:10;;;;;;;43.42;41.20;;;;;;;;;;5113312;27;20035;-62
2024/03/28 00:45:35;;;;;;;43.00;40.78;;;;;;;;;;5112140;27;20036;-62
2024/03/28 00:48:02;;;;;;;46.13;43.72;;;;;;;;;;5110681;27;20041;-62
2024/03/28 00:50:27;;;;;;;53.25;50.53;;;;;;;;;;5113049;27;20042;-62
2024/03/28 00:52:53;;;;;;;55.08;52.22;;;;;;;;;;5110199;27;20023;-62
2024/03/28 00:55:18;;;;;;;55.83;52.83;;;;;;;;;;5111859;27;20052;-61
2024/03/28 00:57:43;;;;;;;57.63;54.63;;;;;;;;;;5095438;27;20043;-62
2024/03/28 01:00:09;;;;;;;56.25;53.35;;;;;;;;;;5110715;27;20046;-62
2024/03/28 01:02:34;;;;;;;66.05;62.67;;;;;;;;;;5111836;27;20404;-62
2024/03/28 01:05:00;;;;;;;57.13;54.22;;;;;;;;;;5112066;27;20083;-62
2024/03/28 01:07:25;;;;;;;59.65;56.63;;;;;;;;;;5113184;27;20062;-62
2024/03/28 01:09:50;;;;;;;62.35;59.20;;;;;;;;;;5113447;27;20027;-62
2024/03/28 01:12:16;;;;;;;59.28;56.30;;;;;;;;;;5095390;28;20048;-62
2024/03/28 01:14:41;;;;;;;64.15;60.90;;;;;;;;;;5113929;28;20042;-62
2024/03/28 01:17:06;;;;;;;66.22;62.92;;;;;;;;;;5111815;28;20035;-61
2024/03/28 01:19:32;;;;;;;63.17;59.90;;;;;;;;;;5110311;28;20041;-63
2024/03/28 01:21:57;;;;;;;66.80;63.45;;;;;;;;;;5112806;28;20050;-62
2024/03/28 01:24:23;;;;;;;64.63;61.35;;;;;;;;;;5090678;28;20027;-61
2024/03/28 01:26:48;;;;;;;68.63;65.15;;;;;;;;;;5097065;28;20468;-61
2024/03/28 01:29:13;;;;;;;65.07;61.80;;;;;;;;;;5112004;28;20034;-61
2024/03/28 01:31:39;;;;;;;66.68;63.33;;;;;;;;;;5111503;28;20088;-62
2024/03/28 01:34:04;;;;;;;67.18;63.78;;;;;;;;;;5094063;28;20031;-62
2024/03/28 01:36:29;;;;;;;60.42;57.30;;;;;;;;;;5113977;28;20035;-62
2024/03/28 01:38:55;;;;;;;60.58;57.53;;;;;;;;;;5112062;28;20043;-61
2024/03/28 01:41:20;;;;;;;63.50;60.28;;;;;;;;;;5113703;28;20036;-62
2024/03/28 01:43:45;;;;;;;69.20;65.70;;;;;;;;;;5110605;28;20026;-62
2024/03/28 01:46:12;;;;;;;66.85;63.42;;;;;;;;;;5112213;28;20043;-61
2024/03/28 01:48:38;;;;;;;64.40;61.10;;;;;;;;;;5093202;28;20437;-62
2024/03/28 01:51:03;;;;;;;68.85;65.40;;;;;;;;;;5092403;28;20031;-63
2024/03/28 01:53:30;;;;;;;66.53;63.15;;;;;;;;;;5111389;28;20047;-63
2024/03/28 01:55:55;;;;;;;67.10;63.65;;;;;;;;;;5111806;27;20031;-62
2024/03/28 01:58:21;;;;;;;66.18;62.85;;;;;;;;;;5118365;27;20122;-62
2024/03/28 02:00:48;;;;;;;68.93;65.47;;;;;;;;;;5116732;27;20027;-63
2024/03/28 02:03:14;;;;;;;69.93;66.38;;;;;;;;;;5097208;27;20084;-62
2024/03/28 02:05:40;;;;;;;62.83;59.63;;;;;;;;;;5118811;27;20036;-62
2024/03/28 02:08:05;;;;;;;66.32;62.33;;;;;;;;;;5114113;27;20046;-62
2024/03/28 02:10:34;;;;;;;62.97;59.83;;;;;;;;;;5117292;27;20113;-61
2024/03/28 02:12:59;;;;;;;60.08;57.05;;;;;;;;;;5113724;27;20034;-62
2024/03/28 02:15:25;;;;;;;60.03;56.97;;;;;;;;;;5117081;27;20654;-61
2024/03/28 02:17:50;;;;;;;58.38;55.25;;;;;;;;;;5114902;27;20047;-52
2024/03/28 02:20:17;;;;;;;59.92;56.92;;;;;;;;;;5117151;27;20429;-51
2024/03/28 02:22:42;;;;;;;58.10;55.13;;;;;;;;;;5115055;27;20035;-62
2024/03/28 02:25:08;;;;;;;57.08;54.20;;;;;;;;;;5095049;27;20552;-50
2024/03/28 02:27:36;;;;;;;53.53;50.78;;;;;;;;;;5114977;27;20531;-61
2024/03/28 02:30:07;;;;;;;56.08;53.22;;;;;;;;;;5116891;27;20798;-62
2024/03/28 02:32:35;;;;;;;54.03;51.28;;;;;;;;;;5115900;27;20165;-52
2024/03/28 02:35:05;;;;;;;54.47;51.67;;;;;;;;;;5117775;27;20027;-51
2024/03/28 02:37:30;;;;;;;51.80;49.20;;;;;;;;;;5116732;27;20040;-61
2024/03/28 02:39:56;;;;;;;56.67;53.80;;;;;;;;;;5114012;27;20016;-61
2024/03/28 02:42:22;;;;;;;56.28;53.45;;;;;;;;;;5115937;27;20047;-62
2024/03/28 02:44:47;;;;;;;54.58;51.78;;;;;;;;;;5115684;27;20023;-62
2024/03/28 02:47:13;;;;;;;55.88;52.90;;;;;;;;;;5114254;27;20120;-52
2024/03/28 02:49:39;;;;;;;54.30;51.55;;;;;;;;;;5115897;27;20036;-61
2024/03/28 02:52:04;;;;;;;52.50;49.85;;;;;;;;;;5115300;27;20035;-61
2024/03/28 02:54:30;;;;;;;56.05;53.22;;;;;;;;;;5115108;27;20046;-61
2024/03/28 02:57:01;;;;;;;57.55;54.60;;;;;;;;;;5116779;27;20031;-62
2024/03/28 02:59:26;;;;;;;55.78;52.90;;;;;;;;;;5115072;27;20028;-52
2024/03/28 03:01:52;;;;;;;51.72;49.03;;;;;;;;;;5118044;27;20045;-60
2024/03/28 03:04:17;;;;;;;56.60;53.72;;;;;;;;;;5114631;27;20118;-48
2024/03/28 03:06:42;;;;;;;52.33;49.65;;;;;;;;;;5117343;27;20128;-54
2024/03/28 03:09:07;;;;;;;55.83;52.97;;;;;;;;;;5096231;27;20119;-63
2024/03/28 03:11:33;;;;;;;60.08;57.05;;;;;;;;;;5099565;27;20061;-50
2024/03/28 03:13:58;;;;;;;53.47;50.75;;;;;;;;;;5097979;27;20043;-49
2024/03/28 03:16:24;;;;;;;56.47;53.58;;;;;;;;;;5115247;27;20023;-50
2024/03/28 03:18:49;;;;;;;55.80;52.88;;;;;;;;;;5110846;27;20457;-61
2024/03/28 03:21:15;;;;;;;58.53;55.10;;;;;;;;;;5113691;27;20065;-50
2024/03/28 03:23:48;;;;;;;52.50;49.85;;;;;;;;;;5117498;27;20050;-51
2024/03/28 03:26:19;;;;;;;54.92;52.17;;;;;;;;;;5095890;27;20618;-60
2024/03/28 03:36:58;;;;;;;56.50;53.67;;;;;;;;;;5113582;27;20031;-62
2024/03/28 03:39:23;;;;;;;57.13;54.17;;;;;;;;;;5112797;27;20429;-62
2024/03/28 03:41:49;;;;;;;60.30;57.25;;;;;;;;;;5115517;27;20031;-62
2024/03/28 03:44:14;;;;;;;58.85;55.90;;;;;;;;;;5116742;27;24082;-62
2024/03/28 03:46:40;;;;;;;58.08;55.15;;;;;;;;;;5112168;27;20070;-61
2024/03/28 03:49:05;;;;;;;60.08;57.03;;;;;;;;;;5111959;27;20035;-61
2024/03/28 03:51:30;;;;;;;61.13;58.05;;;;;;;;;;5116058;27;20018;-52
2024/03/28 03:53:56;;;;;;;58.72;55.72;;;;;;;;;;5114538;27;20038;-50
2024/03/28 03:56:21;;;;;;;61.10;57.88;;;;;;;;;;5116741;27;20047;-60
2024/03/28 03:58:47;;;;;;;58.13;55.20;;;;;;;;;;5116444;27;20063;-62
2024/03/28 04:01:12;;;;;;;58.78;55.78;;;;;;;;;;5114073;27;20031;-50
2024/03/28 04:03:37;;;;;;;55.08;52.33;;;;;;;;;;5114313;27;20035;-62
2024/03/28 04:06:03;;;;;;;58.92;55.97;;;;;;;;;;5115784;27;20054;-62
2024/03/28 04:08:29;;;;;;;58.28;55.35;;;;;;;;;;5108773;27;20031;-62
2024/03/28 04:10:55;;;;;;;55.47;52.67;;;;;;;;;;5115493;27;20046;-62
2024/03/28 04:13:21;;;;;;;55.95;53.05;;;;;;;;;;5113124;27;20039;-62
2024/03/28 04:15:47;;;;;;;58.55;55.58;;;;;;;;;;5115897;27;20065;-52
2024/03/28 04:18:13;;;;;;;54.05;51.30;;;;;;;;;;5113113;27;20042;-53
2024/03/28 04:20:39;;;;;;;55.22;52.45;;;;;;;;;;5096363;27;20031;-62
2024/03/28 04:23:05;;;;;;;53.42;50.65;;;;;;;;;;5114210;27;20039;-53
2024/03/28 04:25:31;;;;;;;56.85;54.00;;;;;;;;;;5115265;27;20033;-53
2024/03/28 04:27:56;;;;;;;56.00;53.17;;;;;;;;;;5114487;27;20037;-61
2024/03/28 04:30:28;;;;;;;56.17;53.33;;;;;;;;;;5114063;27;20050;-62
2024/03/28 04:32:54;;;;;;;56.72;53.85;;;;;;;;;;5116145;27;20096;-62
2024/03/28 04:35:19;;;;;;;58.75;55.80;;;;;;;;;;5115033;27;20032;-51
2024/03/28 04:37:44;;;;;;;55.70;52.88;;;;;;;;;;5112249;27;20066;-54
2024/03/28 04:40:11;;;;;;;57.80;54.90;;;;;;;;;;5113744;27;20019;-61
2024/03/28 04:42:36;;;;;;;57.70;54.80;;;;;;;;;;5112754;27;20031;-49
2024/03/28 04:45:02;;;;;;;54.70;51.92;;;;;;;;;;5093450;28;20046;-51
2024/03/28 04:47:28;;;;;;;58.65;55.70;;;;;;;;;;5111892;27;20042;-52
2024/03/28 04:49:53;;;;;;;55.42;52.65;;;;;;;;;;5113343;27;20027;-52
2024/03/28 04:52:18;;;;;;;58.75;55.72;;;;;;;;;;5113925;27;20074;-61
2024/03/28 04:54:44;;;;;;;57.15;54.22;;;;;;;;;;5112559;27;20055;-50
2024/03/28 04:57:09;;;;;;;57.35;54.45;;;;;;;;;;5112972;27;20109;-52
2024/03/28 04:59:35;;;;;;;57.65;54.72;;;;;;;;;;5096087;27;20027;-50
2024/03/28 05:02:01;;;;;;;56.17;53.30;;;;;;;;;;5111054;27;20035;-54
2024/03/28 05:04:26;;;;;;;60.17;57.10;;;;;;;;;;5111858;27;20917;-50
2024/03/28 05:06:51;;;;;;;57.25;54.38;;;;;;;;;;5111460;27;20034;-50
2024/03/28 05:09:18;;;;;;;57.70;54.65;;;;;;;;;;5110545;27;20031;-52
2024/03/28 05:11:43;;;;;;;57.75;54.80;;;;;;;;;;5112965;27;20039;-62
2024/03/28 05:14:09;;;;;;;60.45;57.08;;;;;;;;;;5092004;28;20461;-62
2024/03/28 05:16:34;;;;;;;59.20;56.15;;;;;;;;;;5111547;27;20031;-62
2024/03/28 05:19:00;;;;;;;57.00;54.13;;;;;;;;;;5111614;28;20035;-52
2024/03/28 05:21:25;;;;;;;59.20;56.17;;;;;;;;;;5094130;28;20096;-51
2024/03/28 05:23:51;;;;;;;57.00;53.92;;;;;;;;;;5111097;28;20653;-52
2024/03/28 05:26:16;;;;;;;56.13;53.28;;;;;;;;;;5114708;28;20039;-62
2024/03/28 05:28:42;;;;;;;58.83;55.75;;;;;;;;;;5111695;28;20106;-52
2024/03/28 05:31:16;;;;;;;60.30;57.20;;;;;;;;;;5108420;27;20027;-61
2024/03/28 05:33:42;;;;;;;57.50;54.47;;;;;;;;;;5111868;27;20222;-61
2024/03/28 05:36:07;;;;;;;56.35;53.45;;;;;;;;;;5096101;27;20106;-48
2024/03/28 05:38:32;;;;;;;54.05;51.15;;;;;;;;;;5115690;27;20465;-61
2024/03/28 05:40:58;;;;;;;54.08;51.33;;;;;;;;;;5116542;27;20038;-61
2024/03/28 05:43:23;;;;;;;51.15;48.55;;;;;;;;;;5115669;27;20067;-50
2024/03/28 05:45:49;;;;;;;56.28;53.47;;;;;;;;;;5119075;27;20587;-52
2024/03/28 05:48:14;;;;;;;54.55;51.75;;;;;;;;;;5117127;27;20351;-54
2024/03/28 05:50:40;;;;;;;55.55;52.72;;;;;;;;;;5117691;27;20077;-49
2024/03/28 05:53:05;;;;;;;56.97;54.00;;;;;;;;;;5111887;27;20039;-52
2024/03/28 05:55:32;;;;;;;56.53;53.53;;;;;;;;;;5117307;27;20035;-50
2024/03/28 05:57:57;;;;;;;57.47;54.58;;;;;;;;;;5114928;27;20032;-50
2024/03/28 06:00:22;;;;;;;54.97;52.10;;;;;;;;;;5115509;27;20339;-52
2024/03/28 06:02:48;;;;;;;55.38;52.60;;;;;;;;;;5114312;27;20146;-50
2024/03/28 06:05:13;;;;;;;51.85;49.13;;;;;;;;;;5104863;27;20110;-54
2024/03/28 06:07:38;;;;;;;51.65;49.03;;;;;;;;;;5113880;27;20379;-53
2024/03/28 06:10:04;;;;;;;51.15;48.55;;;;;;;;;;5113167;27;20039;-50
2024/03/28 06:12:29;;;;;;;52.50;49.63;;;;;;;;;;5113045;27;20039;-50
2024/03/28 06:14:55;;;;;;;53.95;51.15;;;;;;;;;;5115986;27;20042;-54
2024/03/28 06:17:20;;;;;;;52.08;49.40;;;;;;;;;;5110897;27;20042;-52
2024/03/28 06:19:45;;;;;;;50.03;47.50;;;;;;;;;;5118305;27;20034;-52
2024/03/28 06:22:11;;;;;;;52.53;49.75;;;;;;;;;;5112728;27;20415;-49
2024/03/28 06:24:36;;;;;;;53.92;51.15;;;;;;;;;;5115357;27;20035;-50
2024/03/28 06:27:01;;;;;;;49.92;47.38;;;;;;;;;;5115529;27;20468;-50
2024/03/28 06:29:29;;;;;;;48.35;45.83;;;;;;;;;;5116933;27;20183;-51
2024/03/28 06:31:54;;;;;;;48.58;46.05;;;;;;;;;;5108973;27;20035;-53
2024/03/28 06:34:19;;;;;;;48.00;45.50;;;;;;;;;;5117482;27;20039;-52
2024/03/28 06:36:45;;;;;;;48.95;46.45;;;;;;;;;;5115928;27;20035;-52
2024/03/28 06:39:11;;;;;;;49.58;47.05;;;;;;;;;;5114144;27;20035;-51
2024/03/28 06:41:36;;;;;;;49.72;47.20;;;;;;;;;;5114527;27;20078;-49
2024/03/28 06:44:01;;;;;;;49.00;46.50;;;;;;;;;;5118170;27;20089;-50
2024/03/28 06:46:26;;;;;;;50.10;47.53;;;;;;;;;;5094191;27;20031;-53
2024/03/28 06:48:52;;;;;;;51.72;49.08;;;;;;;;;;5114258;27;20032;-50
2024/03/28 06:51:17;;;;;;;47.40;45.00;;;;;;;;;;5110542;27;20717;-52
2024/03/28 06:53:42;;;;;;;50.05;47.47;;;;;;;;;;5114287;27;20033;-52
2024/03/28 06:56:08;;;;;;;50.88;48.30;;;;;;;;;;5113837;27;20040;-60
2024/03/28 06:58:34;;;;;;;48.10;45.63;;;;;;;;;;5111606;27;20027;-54
2024/03/28 07:01:03;;;;;;;46.60;44.15;;;;;;;;;;5115524;27;20131;-54
2024/03/28 07:03:28;;;;;;;46.97;44.58;;;;;;;;;;5115479;27;20035;-60
2024/03/28 07:05:53;;;;;;;45.28;42.97;;;;;;;;;;5116831;27;20139;-61
2024/03/28 07:08:19;;;;;;;46.15;43.78;;;;;;;;;;5109207;27;20108;-61
2024/03/28 07:10:44;;;;;;;46.67;44.28;;;;;;;;;;5111092;27;20527;-51
2024/03/28 07:13:10;;;;;;;45.50;43.20;;;;;;;;;;5112636;27;20055;-55
2024/03/28 07:15:36;;;;;;;48.78;46.28;;;;;;;;;;5116398;27;20042;-53
2024/03/28 07:18:01;;;;;;;51.08;48.20;;;;;;;;;;5112170;27;20061;-52
2024/03/28 07:20:26;;;;;;;46.28;43.95;;;;;;;;;;5111029;27;20168;-60
2024/03/28 07:22:52;;;;;;;44.53;42.25;;;;;;;;;;5110646;27;20054;-62
2024/03/28 07:25:17;;;;;;;50.55;47.95;;;;;;;;;;5112513;27;20039;-53
2024/03/28 07:27:43;;;;;;;44.30;42.05;;;;;;;;;;5113736;27;20035;-51
2024/03/28 07:30:09;;;;;;;44.50;42.25;;;;;;;;;;5095785;27;20121;-60
2024/03/28 07:32:35;;;;;;;47.60;45.20;;;;;;;;;;5110820;27;20063;-60
2024/03/28 07:35:00;;;;;;;47.72;45.33;;;;;;;;;;5115276;27;20528;-53
2024/03/28 07:37:25;;;;;;;50.47;47.90;;;;;;;;;;5093604;27;20042;-60
2024/03/28 07:39:52;;;;;;;51.83;49.13;;;;;;;;;;5114420;27;20164;-62
2024/03/28 07:42:17;;;;;;;50.33;47.72;;;;;;;;;;5110473;27;20039;-61
2024/03/28 07:44:43;;;;;;;48.95;46.45;;;;;;;;;;5113769;27;20051;-62
2024/03/28 07:47:08;;;;;;;48.72;46.22;;;;;;;;;;5110400;27;20031;-62
2024/03/28 07:49:34;;;;;;;49.33;46.83;;;;;;;;;;5114509;27;20031;-61
2024/03/28 07:52:00;;;;;;;49.35;46.85;;;;;;;;;;5110742;27;20110;-62
2024/03/28 07:54:26;;;;;;;50.13;47.60;;;;;;;;;;5112152;27;20342;-53
2024/03/28 07:56:51;;;;;;;49.35;46.85;;;;;;;;;;5110364;27;20050;-51
2024/03/28 07:59:17;;;;;;;53.35;50.65;;;;;;;;;;5114411;27;20038;-63
2024/03/28 08:01:42;;;;;;;51.40;48.70;;;;;;;;;;5112754;27;20040;-53
2024/03/28 08:04:07;;;;;;;55.08;52.28;;;;;;;;;;5112447;27;20518;-63
2024/03/28 08:06:33;;;;;;;51.40;48.60;;;;;;;;;;5111935;27;20051;-52
2024/03/28 08:08:58;;;;;;;50.97;48.38;;;;;;;;;;5112859;27;20051;-62
2024/03/28 08:11:24;;;;;;;52.03;49.35;;;;;;;;;;5112330;27;20031;-62
2024/03/28 08:13:49;;;;;;;51.22;48.63;;;;;;;;;;5092970;27;20114;-62
2024/03/28 08:16:14;;;;;;;53.97;51.28;;;;;;;;;;5107797;27;20059;-62
2024/03/28 08:18:40;;;;;;;51.47;48.85;;;;;;;;;;5109785;27;20081;-49
2024/03/28 08:21:05;;;;;;;54.38;51.63;;;;;;;;;;5079048;27;20463;-52
2024/03/28 08:23:30;;;;;;;56.03;53.22;;;;;;;;;;5112339;27;20042;-53
2024/03/28 08:25:56;;;;;;;54.47;51.70;;;;;;;;;;5113176;27;20649;-49
2024/03/28 08:28:22;;;;;;;52.65;49.95;;;;;;;;;;5108799;27;20058;-49
2024/03/28 08:30:47;;;;;;;52.30;49.60;;;;;;;;;;5112439;27;20041;-61
2024/03/28 08:33:13;;;;;;;53.13;50.40;;;;;;;;;;5110850;27;20128;-62
2024/03/28 08:35:43;;;;;;;51.22;48.63;;;;;;;;;;5093364;28;20068;-61
2024/03/28 08:38:09;;;;;;;51.10;48.50;;;;;;;;;;5109103;27;20028;-62
2024/03/28 08:40:35;;;;;;;48.58;46.10;;;;;;;;;;5091673;27;20117;-51
2024/03/28 08:43:01;;;;;;;51.47;48.88;;;;;;;;;;5109499;27;20031;-51
2024/03/28 08:45:27;;;;;;;50.20;47.65;;;;;;;;;;5112111;27;20433;-50
2024/03/28 08:47:54;;;;;;;51.42;48.83;;;;;;;;;;5112978;27;20300;-51
2024/03/28 08:50:20;;;;;;;49.83;47.30;;;;;;;;;;5089044;28;20042;-50
2024/03/28 08:52:45;;;;;;;51.47;48.88;;;;;;;;;;5110654;27;20532;-62
2024/03/28 08:55:11;;;;;;;53.83;49.92;;;;;;;;;;5113180;27;20031;-53
2024/03/28 08:57:40;;;;;;;53.78;51.08;;;;;;;;;;5109780;27;20069;-53
2024/03/28 09:00:11;;;;;;;53.40;50.70;;;;;;;;;;5112599;27;20031;-54
2024/03/28 09:02:37;;;;;;;54.80;52.03;;;;;;;;;;5114847;27;20062;-50
2024/03/28 09:05:03;;;;;;;55.22;52.42;;;;;;;;;;5110998;27;20096;-53
2024/03/28 09:07:29;;;;;;;53.58;50.85;;;;;;;;;;5109265;28;20035;-54
2024/03/28 09:09:54;;;;;;;54.80;52.05;;;;;;;;;;5111663;27;20046;-60
2024/03/28 09:12:20;;;;;;;53.60;50.90;;;;;;;;;;5112957;27;20099;-61
2024/03/28 09:14:45;;;;;;;53.22;50.50;;;;;;;;;;5111271;27;20630;-60
2024/03/28 09:17:10;;;;;;;55.60;52.80;;;;;;;;;;5111990;27;20500;-60
2024/03/28 09:19:37;;;;;;;51.83;49.22;;;;;;;;;;5110921;27;20084;-54
2024/03/28 09:22:02;;;;;;;52.10;49.47;;;;;;;;;;5110506;28;20753;-53
2024/03/28 09:24:27;;;;;;;52.08;49.45;;;;;;;;;;5111438;28;20039;-53
2024/03/28 09:26:54;;;;;;;51.38;48.67;;;;;;;;;;5115543;28;20058;-53
2024/03/28 09:29:21;;;;;;;51.58;48.97;;;;;;;;;;5094541;28;20077;-60
2024/03/28 09:31:48;;;;;;;51.38;48.78;;;;;;;;;;5112880;28;20055;-60
2024/03/28 09:34:16;;;;;;;51.58;48.95;;;;;;;;;;5113922;28;20061;-61
2024/03/28 09:36:42;;;;;;;52.30;49.63;;;;;;;;;;5112919;28;20418;-53
2024/03/28 09:39:08;;;;;;;53.78;51.08;;;;;;;;;;5108512;28;20035;-53
2024/03/28 09:41:34;;;;;;;51.58;48.97;;;;;;;;;;5109363;28;20045;-60
2024/03/28 09:44:06;;;;;;;51.72;49.13;;;;;;;;;;5110419;28;20088;-53
2024/03/28 09:46:33;;;;;;;51.78;49.17;;;;;;;;;;5109664;28;20418;-52
2024/03/28 09:49:00;;;;;;;51.65;49.05;;;;;;;;;;5110859;28;20111;-53
2024/03/28 09:51:26;;;;;;;51.85;49.25;;;;;;;;;;5110901;28;20502;-60
2024/03/28 09:53:56;;;;;;;54.72;51.95;;;;;;;;;;5107757;28;20089;-62
2024/03/28 09:56:22;;;;;;;53.80;51.10;;;;;;;;;;5111982;28;20032;-54
2024/03/28 09:58:49;;;;;;;53.08;50.38;;;;;;;;;;5111733;28;20309;-61
2024/03/28 10:01:14;;;;;;;57.28;54.38;;;;;;;;;;5110192;28;20298;-62
2024/03/28 10:03:46;;;;;;;55.10;52.30;;;;;;;;;;5112157;28;20066;-62
2024/03/28 10:06:11;;;;;;;55.33;52.53;;;;;;;;;;5110270;28;20027;-51
2024/03/28 10:08:38;;;;;;;56.25;53.42;;;;;;;;;;5112657;28;21238;-49
2024/03/28 10:11:08;;;;;;;56.65;53.78;;;;;;;;;;5111291;28;20031;-62
2024/03/28 10:13:37;;;;;;;55.95;53.10;;;;;;;;;;5110074;28;20019;-50
2024/03/28 10:16:06;;;;;;;56.13;53.22;;;;;;;;;;5112605;28;20043;-62
2024/03/28 10:18:32;;;;;;;51.75;49.15;;;;;;;;;;5109345;27;20472;-62
2024/03/28 10:20:57;;;;;;;51.97;49.38;;;;;;;;;;5099948;27;20046;-49
2024/03/28 10:23:26;;;;;;;51.25;48.65;;;;;;;;;;5111814;27;20035;-54
2024/03/28 10:25:53;;;;;;;47.28;44.88;;;;;;;;;;5113722;27;20039;-62
2024/03/28 10:28:19;;;;;;;46.63;44.10;;;;;;;;;;5116464;27;20042;-63
2024/03/28 10:30:49;;;;;;;47.17;44.78;;;;;;;;;;5113716;27;20154;-62
2024/03/28 10:33:15;;;;;;;45.40;43.10;;;;;;;;;;5112165;27;20033;-62
2024/03/28 10:35:42;;;;;;;44.85;42.55;;;;;;;;;;5114164;27;20376;-62
2024/03/28 10:38:10;;;;;;;43.78;41.45;;;;;;;;;;5111691;27;20555;-61
2024/03/28 10:40:37;;;;;;;44.92;42.63;;;;;;;;;;5113224;27;20042;-54
2024/03/28 10:43:06;;;;;;;48.55;46.08;;;;;;;;;;5116186;27;20059;-62
2024/03/28 10:45:33;;;;;;;46.95;44.55;;;;;;;;;;5114761;27;20073;-62
2024/03/28 10:48:00;;;;;;;46.05;43.70;;;;;;;;;;5111735;27;20024;-51
2024/03/28 10:50:33;;;;;;;43.42;41.22;;;;;;;;;;5110577;27;20031;-54
2024/03/28 10:53:06;;;;;;;47.22;44.83;;;;;;;;;;5096779;27;20535;-61
2024/03/28 10:55:37;;;;;;;56.20;53.38;;;;;;;;;;5113183;27;20054;-61
2024/03/28 10:58:07;;;;;;;76.60;72.80;;;;;;;;;;5115086;27;20031;-55
2024/03/28 11:00:33;;;;;;;101.53;96.47;;;;;;;;;;5114988;27;20063;-62
2024/03/28 11:02:59;;;;;;;99.68;94.78;;;;;;;;;;5114961;27;20070;-52
2024/03/28 11:05:29;;;;;;;112.13;106.63;;;;;;;;;;5097648;27;20080;-52
2024/03/28 11:07:55;;;;;;;117.63;111.80;;;;;;;;;;5093720;27;20028;-53
2024/03/28 11:10:21;;;;;;;90.28;85.80;;;;;;;;;;5118694;27;20269;-62
2024/03/28 11:12:46;;;;;;;55.25;52.47;;;;;;;;;;5097692;27;21046;-61
2024/03/28 11:15:20;;;;;;;79.95;75.95;;;;;;;;;;5116069;27;20050;-54
2024/03/28 11:17:45;;;;;;;99.22;94.32;;;;;;;;;;5113731;27;20362;-61
2024/03/28 11:20:16;;;;;;;85.35;81.13;;;;;;;;;;5116551;27;20042;-52
2024/03/28 11:22:42;;;;;;;84.85;80.65;;;;;;;;;;5114924;27;20460;-62
2024/03/28 11:25:26;;;;;;;84.03;79.88;;;;;;;;;;5117091;27;20175;-62
2024/03/28 11:28:09;;;;;;;50.40;47.85;;;;;;;;;;5112205;27;20475;-61
2024/03/28 11:30:36;;;;;;;41.05;38.95;;;;;;;;;;5110316;27;20042;-54
2024/03/28 11:33:10;;;;;;;45.65;43.35;;;;;;;;;;5113213;27;20361;-55
2024/03/28 11:35:38;;;;;;;47.67;45.10;;;;;;;;;;5113757;27;20036;-52
2024/03/28 11:38:08;;;;;;;55.40;52.60;;;;;;;;;;5112031;27;20032;-52
2024/03/28 11:40:35;;;;;;;54.25;51.53;;;;;;;;;;5110926;27;20100;-61
2024/03/28 11:43:12;;;;;;;53.78;50.90;;;;;;;;;;5111833;27;20063;-61
2024/03/28 11:45:51;;;;;;;62.50;59.40;;;;;;;;;;5111906;27;20031;-62
2024/03/28 11:48:16;;;;;;;78.40;74.50;;;;;;;;;;5110838;27;20031;-51
2024/03/28 11:50:42;;;;;;;80.22;76.22;;;;;;;;;;5111623;27;20035;-55
2024/03/28 11:53:08;;;;;;;56.35;53.53;;;;;;;;;;5115137;27;20524;-52
2024/03/28 11:55:42;;;;;;;34.20;32.40;;;;;;;;;;5113326;27;20373;-54
2024/03/28 11:58:28;;;;;;;60.50;57.45;;;;;;;;;;5095263;27;20536;-54
2024/03/28 12:01:01;;;;;;;34.72;32.92;;;;;;;;;;5112164;27;20087;-63
2024/03/28 12:03:27;;;;;;;35.05;33.25;;;;;;;;;;5113801;27;20027;-55
2024/03/28 12:05:54;;;;;;;44.97;42.67;;;;;;;;;;5114411;27;20042;-52
2024/03/28 12:08:24;;;;;;;71.15;67.55;;;;;;;;;;5109670;27;20031;-62
2024/03/28 12:10:50;;;;;;;38.87;36.87;;;;;;;;;;5109850;27;20372;-62
2024/03/28 12:13:16;;;;;;;39.78;37.75;;;;;;;;;;5113169;27;20271;-62
2024/03/28 12:15:42;;;;;;;30.35;28.75;;;;;;;;;;5113472;27;20031;-55
2024/03/28 12:18:07;;;;;;;32.80;31.10;;;;;;;;;;5111041;27;20028;-62
2024/03/28 12:20:32;;;;;;;27.63;26.23;;;;;;;;;;5094238;27;20763;-52
2024/03/28 12:22:59;;;;;;;28.63;27.13;;;;;;;;;;5108522;27;20039;-55
2024/03/28 12:25:25;;;;;;;30.30;28.73;;;;;;;;;;5110258;27;20050;-62
2024/03/28 12:28:00;;;;;;;29.92;28.38;;;;;;;;;;5110633;27;20034;-63
2024/03/28 12:30:28;;;;;;;28.45;26.95;;;;;;;;;;5111517;27;20456;-62
2024/03/28 12:33:03;;;;;;;29.55;28.05;;;;;;;;;;5091893;28;20424;-62
2024/03/28 12:35:35;;;;;;;30.67;29.08;;;;;;;;;;5114277;27;20035;-62
2024/03/28 12:38:03;;;;;;;29.52;28.02;;;;;;;;;;5112026;27;20054;-62
2024/03/28 12:40:30;;;;;;;28.73;27.23;;;;;;;;;;5112292;27;20042;-62
2024/03/28 12:42:56;;;;;;;28.27;26.77;;;;;;;;;;5111068;27;20035;-62
2024/03/28 12:45:23;;;;;;;30.35;28.75;;;;;;;;;;5110744;27;20031;-53
2024/03/28 12:47:50;;;;;;;32.10;30.45;;;;;;;;;;5109178;27;20035;-60
2024/03/28 12:50:18;;;;;;;30.98;29.38;;;;;;;;;;5109775;27;20092;-60
2024/03/28 12:52:53;;;;;;;34.03;32.28;;;;;;;;;;5105734;27;20577;-62
2024/03/28 12:55:19;;;;;;;32.30;30.63;;;;;;;;;;5110790;27;20461;-54
2024/03/28 12:57:45;;;;;;;28.50;27.00;;;;;;;;;;5111808;27;20480;-52
2024/03/28 13:00:12;;;;;;;25.63;24.30;;;;;;;;;;5080562;28;20038;-61
2024/03/28 13:02:37;;;;;;;29.65;28.05;;;;;;;;;;5091312;28;20024;-63
2024/03/28 13:05:03;;;;;;;30.30;28.70;;;;;;;;;;5107061;28;20489;-54
2024/03/28 13:07:29;;;;;;;26.90;25.50;;;;;;;;;;5110942;27;20048;-56
2024/03/28 13:09:55;;;;;;;29.92;28.35;;;;;;;;;;5109852;27;20031;-55
2024/03/28 13:12:21;;;;;;;31.42;29.83;;;;;;;;;;5095615;27;20038;-56
2024/03/28 13:14:48;;;;;;;33.47;31.77;;;;;;;;;;5109753;27;20035;-61
2024/03/28 13:17:14;;;;;;;31.42;29.83;;;;;;;;;;5110330;27;20038;-63
2024/03/28 13:19:39;;;;;;;31.42;29.83;;;;;;;;;;5106001;28;20035;-63
2024/03/28 13:22:04;;;;;;;35.20;33.40;;;;;;;;;;5112392;27;20152;-62
2024/03/28 13:24:30;;;;;;;33.00;31.30;;;;;;;;;;5109630;28;20035;-55
2024/03/28 13:26:55;;;;;;;30.27;28.67;;;;;;;;;;5092900;28;20166;-55
2024/03/28 13:29:20;;;;;;;27.70;26.25;;;;;;;;;;5108821;28;20035;-55
2024/03/28 13:31:46;;;;;;;28.42;26.92;;;;;;;;;;5110728;28;20035;-63
2024/03/28 13:34:13;;;;;;;29.33;27.83;;;;;;;;;;5110338;28;20027;-63
2024/03/28 13:36:38;;;;;;;30.15;28.55;;;;;;;;;;5108411;28;20055;-56
2024/03/28 13:39:05;;;;;;;33.70;31.92;;;;;;;;;;5112097;28;20074;-62
2024/03/28 13:41:30;;;;;;;44.47;42.13;;;;;;;;;;5110066;28;20024;-63
2024/03/28 13:43:55;;;;;;;44.33;41.92;;;;;;;;;;5091838;28;20050;-62
2024/03/28 13:46:21;;;;;;;43.72;41.50;;;;;;;;;;5112147;28;20063;-63
2024/03/28 13:48:46;;;;;;;36.10;34.25;;;;;;;;;;5111543;28;20620;-51
2024/03/28 13:51:12;;;;;;;40.70;38.60;;;;;;;;;;5111585;28;20369;-63
2024/03/28 13:53:38;;;;;;;53.97;51.25;;;;;;;;;;5115204;27;21092;-63
2024/03/28 13:56:03;;;;;;;51.05;48.47;;;;;;;;;;5113348;27;20023;-64
2024/03/28 13:58:29;;;;;;;41.50;39.40;;;;;;;;;;5115108;27;20111;-51
2024/03/28 14:00:54;;;;;;;55.30;52.42;;;;;;;;;;5112679;27;20119;-64
2024/03/28 14:03:20;;;;;;;47.95;45.55;;;;;;;;;;5111444;27;20064;-63
2024/03/28 14:05:45;;;;;;;62.28;59.17;;;;;;;;;;5115521;27;20015;-64
2024/03/28 14:08:10;;;;;;;40.92;38.83;;;;;;;;;;5113406;27;20031;-52
2024/03/28 14:10:39;;;;;;;41.35;39.25;;;;;;;;;;5116583;27;20027;-51
2024/03/28 14:13:05;;;;;;;35.65;33.85;;;;;;;;;;5116545;27;20031;-56
2024/03/28 14:15:33;;;;;;;36.13;34.22;;;;;;;;;;5098551;27;20031;-55
2024/03/28 14:17:59;;;;;;;36.88;34.97;;;;;;;;;;5113612;27;20131;-53
2024/03/28 14:20:24;;;;;;;43.88;41.65;;;;;;;;;;5114401;27;20035;-53